This is the latest recevied weather packets stored in our database for station/object WD4LSS. If no packets are shown the sender has not sent any weather packets the latest 10 day(s).
| Time | Temp. | Humidity | Pressure | Rain* | Wind** | Luminosity | Snow |
|---|---|---|---|---|---|---|---|
| 1777815317 | 10° C | 57% | 1020.7 hPa | 0 mm | - | - | - |
| 1777814117 | 9.44° C | 65% | 1020.7 hPa | 0 mm | - | - | - |
| 1777813517 | 8.89° C | 70% | 1020.7 hPa | 0 mm | - | - | - |
| 1777811417 | 5° C | 88% | 1020.5 hPa | 0 mm | - | - | - |
| 1777811117 | 4.44° C | 90% | 1020.4 hPa | 0 mm | - | - | - |
| 1777810817 | 4.44° C | 92% | 1020.3 hPa | 0 mm | - | - | - |
| 1777808117 | 1.11° C | 93% | 1019.8 hPa | 0 mm | - | - | - |
| 1777806923 | 1.11° C | 92% | 1019.5 hPa | 0 mm | - | - | - |
| 1777806049 | 0.56° C | 92% | 1019.4 hPa | 0 mm | - | - | - |
| 1777804829 | 0.56° C | 91% | 1019 hPa | 0 mm | - | - | - |
| 1777803949 | 1.11° C | 91% | 1018.6 hPa | 0 mm | - | - | - |
| 1777802728 | 1.11° C | 91% | 1018.2 hPa | 0 mm | - | - | - |
| 1777802129 | 1.11° C | 91% | 1018 hPa | 0 mm | - | - | - |
| 1777801829 | 1.11° C | 91% | 1017.9 hPa | 0 mm | - | - | - |
| 1777801229 | 1.11° C | 91% | 1017.8 hPa | 0 mm | - | - | - |
| 1777800329 | 1.67° C | 90% | 1017.9 hPa | 0 mm | - | - | - |
| 1777799749 | 1.67° C | 90% | 1017.9 hPa | 0 mm | - | - | - |
| 1777799429 | 1.67° C | 90% | 1017.8 hPa | 0 mm | - | - | - |
| 1777797937 | 2.22° C | 90% | 1017.8 hPa | 0 mm | - | - | - |
| 1777794937 | 2.78° C | 90% | 1017.4 hPa | 0 mm | - | - | - |
| 1777793117 | 2.78° C | 89% | 1016.9 hPa | 0 mm | - | - | - |
| 1777791037 | 3.33° C | 88% | 1016.6 hPa | 0 mm | - | - | - |
| 1777790717 | 3.33° C | 88% | 1016.6 hPa | 0 mm | - | - | - |
| 1777790417 | 3.33° C | 88% | 1016.5 hPa | 0 mm | - | - | - |
| 1777789517 | 3.89° C | 87% | 1016.4 hPa | 0 mm | - | - | - |
* Rain latest hour (hover to see other rain measurements)
** Current wind speed in m/s (hover to see current wind gust speed)